sensor_id;sensor_type;location;lat;lon;timestamp;pressure;altitude;pressure_sealevel;temperature;humidity
61394;BME280;48555;50.952;-0.120;2024-01-30T00:02:11;101737.44;;;14.06;83.42
61394;BME280;48555;50.952;-0.120;2024-01-30T00:04:36;101738.06;;;14.09;83.18
61394;BME280;48555;50.952;-0.120;2024-01-30T00:07:02;101746.78;;;14.10;83.19
61394;BME280;48555;50.952;-0.120;2024-01-30T00:09:27;101725.75;;;14.10;83.21
61394;BME280;48555;50.952;-0.120;2024-01-30T00:11:52;101727.31;;;14.13;83.21
61394;BME280;48555;50.952;-0.120;2024-01-30T00:14:18;101729.97;;;14.13;83.29
61394;BME280;48555;50.952;-0.120;2024-01-30T00:16:44;101737.09;;;14.11;83.25
61394;BME280;48555;50.952;-0.120;2024-01-30T00:19:09;101724.91;;;14.09;83.55
61394;BME280;48555;50.952;-0.120;2024-01-30T00:21:34;101732.38;;;14.03;83.88
61394;BME280;48555;50.952;-0.120;2024-01-30T00:24:00;101731.09;;;14.08;83.68
61394;BME280;48555;50.952;-0.120;2024-01-30T00:26:25;101723.94;;;14.11;83.68
61394;BME280;48555;50.952;-0.120;2024-01-30T00:28:50;101727.97;;;14.03;84.14
61394;BME280;48555;50.952;-0.120;2024-01-30T00:31:16;101738.38;;;14.05;84.22
61394;BME280;48555;50.952;-0.120;2024-01-30T00:33:41;101732.06;;;14.07;83.89
61394;BME280;48555;50.952;-0.120;2024-01-30T00:36:08;101733.13;;;14.05;84.08
61394;BME280;48555;50.952;-0.120;2024-01-30T00:38:34;101736.56;;;14.05;84.05
61394;BME280;48555;50.952;-0.120;2024-01-30T00:40:59;101737.53;;;14.04;84.40
61394;BME280;48555;50.952;-0.120;2024-01-30T00:43:24;101734.72;;;13.95;84.83
61394;BME280;48555;50.952;-0.120;2024-01-30T00:45:50;101742.50;;;13.96;85.19
61394;BME280;48555;50.952;-0.120;2024-01-30T00:48:17;101749.53;;;13.96;85.24
61394;BME280;48555;50.952;-0.120;2024-01-30T00:50:43;101744.41;;;13.94;85.26
61394;BME280;48555;50.952;-0.120;2024-01-30T00:53:08;101745.25;;;13.95;85.42
61394;BME280;48555;50.952;-0.120;2024-01-30T00:55:34;101738.63;;;13.89;85.51
61394;BME280;48555;50.952;-0.120;2024-01-30T00:58:00;101740.53;;;13.74;86.36
61394;BME280;48555;50.952;-0.120;2024-01-30T01:00:25;101740.31;;;13.77;86.47
61394;BME280;48555;50.952;-0.120;2024-01-30T01:02:57;101728.84;;;13.78;86.30
61394;BME280;48555;50.952;-0.120;2024-01-30T01:05:22;101732.31;;;13.79;86.15
61394;BME280;48555;50.952;-0.120;2024-01-30T01:07:47;101740.41;;;13.76;86.33
61394;BME280;48555;50.952;-0.120;2024-01-30T01:10:14;101750.09;;;13.62;86.83
61394;BME280;48555;50.952;-0.120;2024-01-30T01:12:39;101744.41;;;13.56;87.35
61394;BME280;48555;50.952;-0.120;2024-01-30T01:15:05;101740.72;;;13.58;86.90
61394;BME280;48555;50.952;-0.120;2024-01-30T01:17:34;101745.34;;;13.55;86.82
61394;BME280;48555;50.952;-0.120;2024-01-30T01:19:59;101747.34;;;13.51;86.79
61394;BME280;48555;50.952;-0.120;2024-01-30T01:22:25;101742.31;;;13.48;86.64
61394;BME280;48555;50.952;-0.120;2024-01-30T01:24:50;101746.59;;;13.49;86.21
61394;BME280;48555;50.952;-0.120;2024-01-30T01:27:15;101734.50;;;13.47;85.83
61394;BME280;48555;50.952;-0.120;2024-01-30T01:29:41;101736.72;;;13.40;85.12
61394;BME280;48555;50.952;-0.120;2024-01-30T01:32:06;101739.44;;;13.26;84.99
61394;BME280;48555;50.952;-0.120;2024-01-30T01:34:32;101741.78;;;13.30;84.51
61394;BME280;48555;50.952;-0.120;2024-01-30T01:36:57;101730.06;;;13.22;84.11
61394;BME280;48555;50.952;-0.120;2024-01-30T01:39:22;101738.22;;;13.17;83.48
61394;BME280;48555;50.952;-0.120;2024-01-30T01:41:51;101732.91;;;13.18;83.18
61394;BME280;48555;50.952;-0.120;2024-01-30T01:44:17;101735.59;;;13.17;82.73
61394;BME280;48555;50.952;-0.120;2024-01-30T01:46:43;101727.94;;;13.14;82.53
61394;BME280;48555;50.952;-0.120;2024-01-30T01:49:09;101734.75;;;13.04;82.26
61394;BME280;48555;50.952;-0.120;2024-01-30T01:51:36;101731.72;;;13.10;82.13
61394;BME280;48555;50.952;-0.120;2024-01-30T01:54:03;101744.72;;;13.11;81.70
61394;BME280;48555;50.952;-0.120;2024-01-30T01:56:31;101737.25;;;13.05;81.60
61394;BME280;48555;50.952;-0.120;2024-01-30T01:59:00;101742.09;;;12.99;81.84
61394;BME280;48555;50.952;-0.120;2024-01-30T02:01:30;101730.94;;;12.95;81.82
61394;BME280;48555;50.952;-0.120;2024-01-30T02:03:56;101709.53;;;13.01;81.59
61394;BME280;48555;50.952;-0.120;2024-01-30T02:06:21;101701.75;;;13.00;81.57
61394;BME280;48555;50.952;-0.120;2024-01-30T02:08:46;101698.69;;;12.93;81.50
61394;BME280;48555;50.952;-0.120;2024-01-30T02:11:12;101695.72;;;12.85;81.88
61394;BME280;48555;50.952;-0.120;2024-01-30T02:13:38;101705.72;;;12.80;81.73
61394;BME280;48555;50.952;-0.120;2024-01-30T02:16:03;101701.78;;;12.72;82.34
61394;BME280;48555;50.952;-0.120;2024-01-30T02:18:29;101706.59;;;12.66;82.94
61394;BME280;48555;50.952;-0.120;2024-01-30T02:20:56;101709.31;;;12.64;82.73
61394;BME280;48555;50.952;-0.120;2024-01-30T02:23:24;101724.88;;;12.67;82.79
61394;BME280;48555;50.952;-0.120;2024-01-30T02:25:50;101720.13;;;12.60;83.21
61394;BME280;48555;50.952;-0.120;2024-01-30T02:28:19;101725.97;;;12.50;83.67
61394;BME280;48555;50.952;-0.120;2024-01-30T02:30:45;101718.09;;;12.50;83.83
61394;BME280;48555;50.952;-0.120;2024-01-30T02:33:11;101727.56;;;12.53;83.97
61394;BME280;48555;50.952;-0.120;2024-01-30T02:35:36;101713.28;;;12.57;83.53
61394;BME280;48555;50.952;-0.120;2024-01-30T02:38:01;101708.78;;;12.59;83.77
61394;BME280;48555;50.952;-0.120;2024-01-30T02:40:27;101712.91;;;12.63;83.67
61394;BME280;48555;50.952;-0.120;2024-01-30T02:42:52;101717.78;;;12.55;83.85
61394;BME280;48555;50.952;-0.120;2024-01-30T02:45:18;101709.41;;;12.50;84.05
61394;BME280;48555;50.952;-0.120;2024-01-30T02:47:43;101705.59;;;12.41;84.13
61394;BME280;48555;50.952;-0.120;2024-01-30T02:50:09;101713.72;;;12.37;84.38
61394;BME280;48555;50.952;-0.120;2024-01-30T02:52:34;101714.69;;;12.36;84.40
61394;BME280;48555;50.952;-0.120;2024-01-30T02:55:00;101707.34;;;12.41;84.14
61394;BME280;48555;50.952;-0.120;2024-01-30T02:57:25;101698.81;;;12.37;84.41
61394;BME280;48555;50.952;-0.120;2024-01-30T02:59:51;101709.31;;;12.37;84.39
61394;BME280;48555;50.952;-0.120;2024-01-30T03:02:16;101715.50;;;12.36;84.32
61394;BME280;48555;50.952;-0.120;2024-01-30T03:04:42;101722.81;;;12.31;84.59
61394;BME280;48555;50.952;-0.120;2024-01-30T03:07:08;101732.56;;;12.29;84.88
61394;BME280;48555;50.952;-0.120;2024-01-30T03:09:33;101726.47;;;12.28;85.03
61394;BME280;48555;50.952;-0.120;2024-01-30T03:11:58;101722.75;;;12.33;84.65
61394;BME280;48555;50.952;-0.120;2024-01-30T03:14:24;101720.41;;;12.28;84.76
61394;BME280;48555;50.952;-0.120;2024-01-30T03:16:49;101714.56;;;12.37;84.23
61394;BME280;48555;50.952;-0.120;2024-01-30T03:19:14;101715.16;;;12.28;84.56
61394;BME280;48555;50.952;-0.120;2024-01-30T03:21:40;101716.94;;;12.27;84.66
61394;BME280;48555;50.952;-0.120;2024-01-30T03:24:05;101720.50;;;12.26;84.98
61394;BME280;48555;50.952;-0.120;2024-01-30T03:26:31;101721.34;;;12.27;84.62
61394;BME280;48555;50.952;-0.120;2024-01-30T03:28:56;101720.16;;;12.18;85.01
61394;BME280;48555;50.952;-0.120;2024-01-30T03:31:21;101726.31;;;12.17;85.45
61394;BME280;48555;50.952;-0.120;2024-01-30T03:33:47;101731.56;;;12.17;85.56
61394;BME280;48555;50.952;-0.120;2024-01-30T03:36:12;101730.00;;;12.15;85.74
61394;BME280;48555;50.952;-0.120;2024-01-30T03:38:37;101717.53;;;12.18;85.77
61394;BME280;48555;50.952;-0.120;2024-01-30T03:41:03;101710.19;;;12.23;85.35
61394;BME280;48555;50.952;-0.120;2024-01-30T03:43:28;101704.94;;;12.23;85.53
61394;BME280;48555;50.952;-0.120;2024-01-30T03:45:53;101708.81;;;12.18;85.51
61394;BME280;48555;50.952;-0.120;2024-01-30T03:48:20;101708.16;;;12.14;85.34
61394;BME280;48555;50.952;-0.120;2024-01-30T03:50:46;101708.53;;;12.08;85.79
61394;BME280;48555;50.952;-0.120;2024-01-30T03:53:11;101706.41;;;12.00;85.65
61394;BME280;48555;50.952;-0.120;2024-01-30T03:55:36;101710.63;;;12.03;85.91
61394;BME280;48555;50.952;-0.120;2024-01-30T03:58:02;101716.91;;;12.00;85.83
61394;BME280;48555;50.952;-0.120;2024-01-30T04:00:27;101713.41;;;12.00;85.66
61394;BME280;48555;50.952;-0.120;2024-01-30T04:02:53;101720.63;;;11.96;85.57
61394;BME280;48555;50.952;-0.120;2024-01-30T04:05:18;101705.94;;;11.94;85.68
61394;BME280;48555;50.952;-0.120;2024-01-30T04:07:43;101709.31;;;11.96;85.72
61394;BME280;48555;50.952;-0.120;2024-01-30T04:10:09;101709.22;;;11.97;85.88
61394;BME280;48555;50.952;-0.120;2024-01-30T04:12:35;101722.59;;;11.93;85.86
61394;BME280;48555;50.952;-0.120;2024-01-30T04:15:01;101718.13;;;11.95;85.56
61394;BME280;48555;50.952;-0.120;2024-01-30T04:17:27;101728.50;;;11.96;85.51
61394;BME280;48555;50.952;-0.120;2024-01-30T04:19:54;101726.91;;;11.94;85.63
61394;BME280;48555;50.952;-0.120;2024-01-30T04:22:19;101723.88;;;12.00;85.36
61394;BME280;48555;50.952;-0.120;2024-01-30T04:24:44;101720.63;;;11.96;85.36
61394;BME280;48555;50.952;-0.120;2024-01-30T04:27:10;101727.28;;;12.02;85.33
61394;BME280;48555;50.952;-0.120;2024-01-30T04:29:35;101729.13;;;12.00;85.20
61394;BME280;48555;50.952;-0.120;2024-01-30T04:32:00;101736.09;;;12.01;85.00
61394;BME280;48555;50.952;-0.120;2024-01-30T04:34:26;101750.22;;;11.98;84.92
61394;BME280;48555;50.952;-0.120;2024-01-30T04:36:51;101748.44;;;11.99;84.82
61394;BME280;48555;50.952;-0.120;2024-01-30T04:39:16;101756.50;;;11.96;84.88
61394;BME280;48555;50.952;-0.120;2024-01-30T04:41:42;101760.31;;;11.90;84.98
61394;BME280;48555;50.952;-0.120;2024-01-30T04:44:07;101766.50;;;11.89;84.82
61394;BME280;48555;50.952;-0.120;2024-01-30T04:46:32;101767.91;;;11.95;84.59
61394;BME280;48555;50.952;-0.120;2024-01-30T04:48:59;101756.50;;;11.96;84.46
61394;BME280;48555;50.952;-0.120;2024-01-30T04:51:25;101757.31;;;11.96;84.10
61394;BME280;48555;50.952;-0.120;2024-01-30T04:53:50;101760.59;;;12.00;83.83
61394;BME280;48555;50.952;-0.120;2024-01-30T04:56:15;101759.56;;;12.02;83.52
61394;BME280;48555;50.952;-0.120;2024-01-30T04:58:41;101758.72;;;12.02;83.36
61394;BME280;48555;50.952;-0.120;2024-01-30T05:01:06;101766.59;;;12.02;83.10
61394;BME280;48555;50.952;-0.120;2024-01-30T05:03:35;101772.41;;;12.07;83.01
61394;BME280;48555;50.952;-0.120;2024-01-30T05:06:00;101772.66;;;12.02;82.66
61394;BME280;48555;50.952;-0.120;2024-01-30T05:08:26;101779.81;;;12.00;82.50
61394;BME280;48555;50.952;-0.120;2024-01-30T05:10:51;101781.84;;;11.95;82.51
61394;BME280;48555;50.952;-0.120;2024-01-30T05:13:17;101793.28;;;11.94;82.13
61394;BME280;48555;50.952;-0.120;2024-01-30T05:15:42;101787.28;;;11.92;81.82
61394;BME280;48555;50.952;-0.120;2024-01-30T05:18:07;101794.97;;;11.95;81.77
61394;BME280;48555;50.952;-0.120;2024-01-30T05:20:33;101789.81;;;11.94;81.40
61394;BME280;48555;50.952;-0.120;2024-01-30T05:22:58;101786.44;;;11.92;81.34
61394;BME280;48555;50.952;-0.120;2024-01-30T05:25:23;101781.84;;;11.95;81.13
61394;BME280;48555;50.952;-0.120;2024-01-30T05:27:49;101774.84;;;11.96;80.95
61394;BME280;48555;50.952;-0.120;2024-01-30T05:30:15;101772.22;;;11.96;80.60
61394;BME280;48555;50.952;-0.120;2024-01-30T05:32:40;101790.56;;;11.96;80.71
61394;BME280;48555;50.952;-0.120;2024-01-30T05:35:06;101797.28;;;12.00;80.46
61394;BME280;48555;50.952;-0.120;2024-01-30T05:37:33;101788.97;;;11.93;80.21
61394;BME280;48555;50.952;-0.120;2024-01-30T05:39:58;101793.94;;;11.98;80.22
61394;BME280;48555;50.952;-0.120;2024-01-30T05:42:23;101803.66;;;11.96;79.98
61394;BME280;48555;50.952;-0.120;2024-01-30T05:44:49;101817.97;;;11.90;80.07
61394;BME280;48555;50.952;-0.120;2024-01-30T05:47:14;101810.47;;;11.84;80.01
61394;BME280;48555;50.952;-0.120;2024-01-30T05:49:40;101812.94;;;11.87;80.10
61394;BME280;48555;50.952;-0.120;2024-01-30T05:52:06;101824.25;;;11.88;80.08
61394;BME280;48555;50.952;-0.120;2024-01-30T05:54:31;101826.88;;;11.88;80.10
61394;BME280;48555;50.952;-0.120;2024-01-30T05:56:56;101836.50;;;11.87;79.98
61394;BME280;48555;50.952;-0.120;2024-01-30T05:59:22;101848.59;;;11.90;79.96
61394;BME280;48555;50.952;-0.120;2024-01-30T06:01:48;101857.28;;;11.90;79.77
61394;BME280;48555;50.952;-0.120;2024-01-30T06:04:13;101848.53;;;11.91;79.96
61394;BME280;48555;50.952;-0.120;2024-01-30T06:06:39;101853.59;;;11.94;79.72
61394;BME280;48555;50.952;-0.120;2024-01-30T06:09:05;101847.66;;;11.91;79.50
61394;BME280;48555;50.952;-0.120;2024-01-30T06:11:30;101849.72;;;11.86;80.00
61394;BME280;48555;50.952;-0.120;2024-01-30T06:13:56;101851.47;;;11.85;79.55
61394;BME280;48555;50.952;-0.120;2024-01-30T06:16:21;101860.88;;;11.89;79.33
61394;BME280;48555;50.952;-0.120;2024-01-30T06:18:48;101870.31;;;11.92;79.24
61394;BME280;48555;50.952;-0.120;2024-01-30T06:21:13;101868.53;;;11.92;79.35
61394;BME280;48555;50.952;-0.120;2024-01-30T06:23:39;101873.69;;;11.94;79.23
61394;BME280;48555;50.952;-0.120;2024-01-30T06:26:06;101870.50;;;11.89;79.03
61394;BME280;48555;50.952;-0.120;2024-01-30T06:28:31;101891.28;;;11.92;78.99
61394;BME280;48555;50.952;-0.120;2024-01-30T06:30:57;101893.09;;;11.91;78.17
61394;BME280;48555;50.952;-0.120;2024-01-30T06:33:22;101896.91;;;11.70;77.25
61394;BME280;48555;50.952;-0.120;2024-01-30T06:35:48;101899.03;;;11.63;76.13
61394;BME280;48555;50.952;-0.120;2024-01-30T06:38:13;101904.88;;;11.52;75.52
61394;BME280;48555;50.952;-0.120;2024-01-30T06:40:40;101912.66;;;11.54;74.95
61394;BME280;48555;50.952;-0.120;2024-01-30T06:43:06;101917.31;;;11.49;74.18
61394;BME280;48555;50.952;-0.120;2024-01-30T06:45:33;101912.44;;;11.43;73.57
61394;BME280;48555;50.952;-0.120;2024-01-30T06:47:59;101917.41;;;11.31;73.63
61394;BME280;48555;50.952;-0.120;2024-01-30T06:50:25;101923.59;;;11.30;73.30
61394;BME280;48555;50.952;-0.120;2024-01-30T06:52:50;101924.19;;;11.35;73.02
61394;BME280;48555;50.952;-0.120;2024-01-30T06:55:16;101933.22;;;11.30;72.94
61394;BME280;48555;50.952;-0.120;2024-01-30T06:57:41;101939.88;;;11.20;73.02
61394;BME280;48555;50.952;-0.120;2024-01-30T07:00:07;101938.97;;;11.21;72.86
61394;BME280;48555;50.952;-0.120;2024-01-30T07:02:32;101943.09;;;11.25;72.80
61394;BME280;48555;50.952;-0.120;2024-01-30T07:04:58;101949.34;;;11.22;72.74
61394;BME280;48555;50.952;-0.120;2024-01-30T07:07:23;101954.59;;;11.22;72.71
61394;BME280;48555;50.952;-0.120;2024-01-30T07:09:49;101956.28;;;11.23;72.64
61394;BME280;48555;50.952;-0.120;2024-01-30T07:12:17;101957.81;;;11.27;72.80
61394;BME280;48555;50.952;-0.120;2024-01-30T07:14:43;101949.69;;;11.32;72.35
61394;BME280;48555;50.952;-0.120;2024-01-30T07:17:08;101961.88;;;11.33;72.50
61394;BME280;48555;50.952;-0.120;2024-01-30T07:19:33;101980.09;;;11.34;72.52
61394;BME280;48555;50.952;-0.120;2024-01-30T07:22:00;101983.91;;;11.29;72.64
61394;BME280;48555;50.952;-0.120;2024-01-30T07:24:25;101981.78;;;11.20;72.85
61394;BME280;48555;50.952;-0.120;2024-01-30T07:26:50;101998.94;;;11.25;72.57
61394;BME280;48555;50.952;-0.120;2024-01-30T07:29:16;101997.59;;;11.18;72.75
61394;BME280;48555;50.952;-0.120;2024-01-30T07:31:41;101999.59;;;11.13;72.52
61394;BME280;48555;50.952;-0.120;2024-01-30T07:34:07;102012.19;;;11.06;72.36
61394;BME280;48555;50.952;-0.120;2024-01-30T07:36:32;102017.97;;;10.96;72.57
61394;BME280;48555;50.952;-0.120;2024-01-30T07:38:57;102027.34;;;11.00;72.45
61394;BME280;48555;50.952;-0.120;2024-01-30T07:41:22;102035.13;;;11.01;72.35
61394;BME280;48555;50.952;-0.120;2024-01-30T07:43:50;102031.84;;;10.98;72.18
61394;BME280;48555;50.952;-0.120;2024-01-30T07:46:15;102043.06;;;11.00;72.14
61394;BME280;48555;50.952;-0.120;2024-01-30T07:48:41;102042.97;;;11.01;72.48
61394;BME280;48555;50.952;-0.120;2024-01-30T07:51:06;102048.22;;;11.01;72.16
61394;BME280;48555;50.952;-0.120;2024-01-30T07:53:31;102054.56;;;10.97;72.39
61394;BME280;48555;50.952;-0.120;2024-01-30T07:55:57;102058.34;;;10.91;72.48
61394;BME280;48555;50.952;-0.120;2024-01-30T07:58:22;102063.56;;;10.91;72.76
61394;BME280;48555;50.952;-0.120;2024-01-30T08:00:49;102066.94;;;10.94;72.63
61394;BME280;48555;50.952;-0.120;2024-01-30T08:03:14;102062.94;;;10.86;72.81
61394;BME280;48555;50.952;-0.120;2024-01-30T08:05:41;102079.28;;;10.91;72.57
61394;BME280;48555;50.952;-0.120;2024-01-30T08:08:07;102080.59;;;10.83;72.82
61394;BME280;48555;50.952;-0.120;2024-01-30T08:10:33;102079.44;;;10.88;72.80
61394;BME280;48555;50.952;-0.120;2024-01-30T08:12:58;102092.56;;;10.87;72.89
61394;BME280;48555;50.952;-0.120;2024-01-30T08:15:24;102093.19;;;10.92;72.92
61394;BME280;48555;50.952;-0.120;2024-01-30T08:17:49;102102.41;;;10.99;72.77
61394;BME280;48555;50.952;-0.120;2024-01-30T08:20:14;102113.19;;;10.93;72.87
61394;BME280;48555;50.952;-0.120;2024-01-30T08:22:40;102108.91;;;10.92;72.55
61394;BME280;48555;50.952;-0.120;2024-01-30T08:25:06;102113.03;;;10.96;72.68
61394;BME280;48555;50.952;-0.120;2024-01-30T08:27:31;102113.88;;;10.97;72.54
61394;BME280;48555;50.952;-0.120;2024-01-30T08:29:57;102126.06;;;10.98;72.50
61394;BME280;48555;50.952;-0.120;2024-01-30T08:32:22;102120.38;;;10.89;72.17
61394;BME280;48555;50.952;-0.120;2024-01-30T08:34:49;102126.28;;;10.93;72.14
61394;BME280;48555;50.952;-0.120;2024-01-30T08:37:14;102129.84;;;10.92;72.28
61394;BME280;48555;50.952;-0.120;2024-01-30T08:39:41;102138.84;;;10.86;71.86
61394;BME280;48555;50.952;-0.120;2024-01-30T08:42:07;102129.31;;;10.85;71.90
61394;BME280;48555;50.952;-0.120;2024-01-30T08:44:33;102141.31;;;10.89;72.07
61394;BME280;48555;50.952;-0.120;2024-01-30T08:46:58;102137.06;;;10.87;72.38
61394;BME280;48555;50.952;-0.120;2024-01-30T08:49:23;102153.38;;;10.92;72.29
61394;BME280;48555;50.952;-0.120;2024-01-30T08:51:49;102158.38;;;10.97;72.00
61394;BME280;48555;50.952;-0.120;2024-01-30T08:54:15;102154.06;;;10.96;71.94
61394;BME280;48555;50.952;-0.120;2024-01-30T08:56:40;102152.91;;;11.01;72.24
61394;BME280;48555;50.952;-0.120;2024-01-30T08:59:06;102167.63;;;11.04;72.09
61394;BME280;48555;50.952;-0.120;2024-01-30T09:01:31;102170.09;;;11.07;72.11
61394;BME280;48555;50.952;-0.120;2024-01-30T09:03:56;102177.94;;;11.07;71.92
61394;BME280;48555;50.952;-0.120;2024-01-30T09:06:22;102168.16;;;11.10;71.96
61394;BME280;48555;50.952;-0.120;2024-01-30T09:08:47;102180.94;;;11.17;71.56
61394;BME280;48555;50.952;-0.120;2024-01-30T09:11:14;102176.53;;;11.17;71.75
61394;BME280;48555;50.952;-0.120;2024-01-30T09:13:40;102172.28;;;11.14;71.28
61394;BME280;48555;50.952;-0.120;2024-01-30T09:16:05;102174.06;;;11.14;71.22
61394;BME280;48555;50.952;-0.120;2024-01-30T09:18:31;102175.53;;;11.20;71.13
61394;BME280;48555;50.952;-0.120;2024-01-30T09:20:56;102173.44;;;11.26;70.76
61394;BME280;48555;50.952;-0.120;2024-01-30T09:23:22;102174.31;;;11.27;70.78
61394;BME280;48555;50.952;-0.120;2024-01-30T09:25:48;102171.84;;;11.24;70.73
61394;BME280;48555;50.952;-0.120;2024-01-30T09:28:13;102188.97;;;11.29;70.53
61394;BME280;48555;50.952;-0.120;2024-01-30T09:30:38;102200.84;;;11.36;70.31
61394;BME280;48555;50.952;-0.120;2024-01-30T09:33:04;102198.13;;;11.38;70.30
61394;BME280;48555;50.952;-0.120;2024-01-30T09:35:30;102199.59;;;11.44;70.04
61394;BME280;48555;50.952;-0.120;2024-01-30T09:37:55;102198.84;;;11.42;69.56
61394;BME280;48555;50.952;-0.120;2024-01-30T09:40:22;102214.25;;;11.48;69.38
61394;BME280;48555;50.952;-0.120;2024-01-30T09:42:47;102212.47;;;11.48;69.13
61394;BME280;48555;50.952;-0.120;2024-01-30T09:45:15;102216.88;;;11.48;68.98
61394;BME280;48555;50.952;-0.120;2024-01-30T09:47:43;102214.16;;;11.49;69.08
61394;BME280;48555;50.952;-0.120;2024-01-30T09:50:10;102224.41;;;11.54;68.75
61394;BME280;48555;50.952;-0.120;2024-01-30T09:52:35;102220.22;;;11.50;68.46
61394;BME280;48555;50.952;-0.120;2024-01-30T09:55:02;102225.56;;;11.48;68.22
61394;BME280;48555;50.952;-0.120;2024-01-30T09:57:27;102232.50;;;11.49;68.03
61394;BME280;48555;50.952;-0.120;2024-01-30T09:59:53;102245.44;;;11.52;68.24
61394;BME280;48555;50.952;-0.120;2024-01-30T10:02:20;102241.13;;;11.51;68.25
61394;BME280;48555;50.952;-0.120;2024-01-30T10:04:48;102241.81;;;11.55;68.21
61394;BME280;48555;50.952;-0.120;2024-01-30T10:07:14;102246.81;;;11.59;68.17
61394;BME280;48555;50.952;-0.120;2024-01-30T10:09:39;102248.34;;;11.64;68.09
61394;BME280;48555;50.952;-0.120;2024-01-30T10:12:05;102246.97;;;11.56;68.04
61394;BME280;48555;50.952;-0.120;2024-01-30T10:14:31;102252.34;;;11.71;67.86
61394;BME280;48555;50.952;-0.120;2024-01-30T10:16:57;102257.50;;;11.72;67.72
61394;BME280;48555;50.952;-0.120;2024-01-30T10:19:23;102259.03;;;11.76;67.68
61394;BME280;48555;50.952;-0.120;2024-01-30T10:21:48;102258.88;;;11.79;67.55
61394;BME280;48555;50.952;-0.120;2024-01-30T10:24:14;102271.69;;;11.86;67.30
61394;BME280;48555;50.952;-0.120;2024-01-30T10:26:39;102270.66;;;11.88;67.49
61394;BME280;48555;50.952;-0.120;2024-01-30T10:29:05;102275.00;;;11.89;67.47
61394;BME280;48555;50.952;-0.120;2024-01-30T10:31:30;102293.19;;;11.92;67.31
61394;BME280;48555;50.952;-0.120;2024-01-30T10:33:56;102293.88;;;11.96;67.12
61394;BME280;48555;50.952;-0.120;2024-01-30T10:36:28;102293.88;;;11.96;67.22
61394;BME280;48555;50.952;-0.120;2024-01-30T10:38:55;102301.56;;;11.99;67.11
61394;BME280;48555;50.952;-0.120;2024-01-30T10:41:26;102300.63;;;12.00;67.05
61394;BME280;48555;50.952;-0.120;2024-01-30T10:44:02;102303.25;;;12.00;67.11
61394;BME280;48555;50.952;-0.120;2024-01-30T10:46:31;102297.00;;;12.02;67.01
61394;BME280;48555;50.952;-0.120;2024-01-30T10:48:58;102303.69;;;12.08;67.25
61394;BME280;48555;50.952;-0.120;2024-01-30T10:51:26;102318.53;;;12.09;67.20
61394;BME280;48555;50.952;-0.120;2024-01-30T10:53:52;102317.50;;;12.12;67.20
61394;BME280;48555;50.952;-0.120;2024-01-30T10:56:22;102313.13;;;12.12;66.70
61394;BME280;48555;50.952;-0.120;2024-01-30T10:58:52;102320.50;;;12.21;66.68
61394;BME280;48555;50.952;-0.120;2024-01-30T11:01:22;102315.16;;;12.23;66.54
61394;BME280;48555;50.952;-0.120;2024-01-30T11:03:50;102315.75;;;12.28;66.31
61394;BME280;48555;50.952;-0.120;2024-01-30T11:06:16;102326.25;;;12.28;66.43
61394;BME280;48555;50.952;-0.120;2024-01-30T11:08:44;102328.03;;;12.27;66.18
61394;BME280;48555;50.952;-0.120;2024-01-30T11:11:10;102336.66;;;12.30;66.49
61394;BME280;48555;50.952;-0.120;2024-01-30T11:13:36;102328.09;;;12.26;66.24
61394;BME280;48555;50.952;-0.120;2024-01-30T11:16:02;102343.59;;;12.31;65.94
61394;BME280;48555;50.952;-0.120;2024-01-30T11:18:32;102341.91;;;12.30;66.02
61394;BME280;48555;50.952;-0.120;2024-01-30T11:20:59;102340.13;;;12.30;65.95
61394;BME280;48555;50.952;-0.120;2024-01-30T11:23:27;102347.00;;;12.33;66.01
61394;BME280;48555;50.952;-0.120;2024-01-30T11:25:53;102349.53;;;12.34;65.70
61394;BME280;48555;50.952;-0.120;2024-01-30T11:28:18;102350.38;;;12.35;65.74
61394;BME280;48555;50.952;-0.120;2024-01-30T11:30:46;102352.25;;;12.33;65.55
61394;BME280;48555;50.952;-0.120;2024-01-30T11:33:13;102355.59;;;12.35;65.53
61394;BME280;48555;50.952;-0.120;2024-01-30T11:35:43;102352.06;;;12.36;65.56
61394;BME280;48555;50.952;-0.120;2024-01-30T11:38:11;102354.59;;;12.37;65.22
61394;BME280;48555;50.952;-0.120;2024-01-30T11:40:38;102345.44;;;12.28;65.26
61394;BME280;48555;50.952;-0.120;2024-01-30T11:43:04;102356.72;;;12.31;65.13
61394;BME280;48555;50.952;-0.120;2024-01-30T11:45:31;102357.50;;;12.33;65.18
61394;BME280;48555;50.952;-0.120;2024-01-30T11:47:56;102354.88;;;12.33;64.83
61394;BME280;48555;50.952;-0.120;2024-01-30T11:50:23;102358.06;;;12.22;64.55
61394;BME280;48555;50.952;-0.120;2024-01-30T11:52:50;102355.59;;;12.19;64.52
61394;BME280;48555;50.952;-0.120;2024-01-30T11:55:16;102361.69;;;12.19;64.46
61394;BME280;48555;50.952;-0.120;2024-01-30T11:57:42;102368.94;;;12.14;64.58
61394;BME280;48555;50.952;-0.120;2024-01-30T12:00:16;102372.50;;;12.13;64.78
61394;BME280;48555;50.952;-0.120;2024-01-30T12:02:42;102370.66;;;12.15;64.70
61394;BME280;48555;50.952;-0.120;2024-01-30T12:05:08;102367.84;;;12.18;64.84
61394;BME280;48555;50.952;-0.120;2024-01-30T12:07:37;102367.03;;;12.18;64.78
61394;BME280;48555;50.952;-0.120;2024-01-30T12:10:02;102376.56;;;12.19;64.50
61394;BME280;48555;50.952;-0.120;2024-01-30T12:12:28;102376.47;;;12.20;64.64
61394;BME280;48555;50.952;-0.120;2024-01-30T12:14:56;102374.56;;;12.24;64.52
61394;BME280;48555;50.952;-0.120;2024-01-30T12:17:30;102382.50;;;12.22;64.60
61394;BME280;48555;50.952;-0.120;2024-01-30T12:20:06;102385.91;;;12.24;64.83
61394;BME280;48555;50.952;-0.120;2024-01-30T12:22:35;102379.03;;;12.22;64.63
61394;BME280;48555;50.952;-0.120;2024-01-30T12:25:01;102386.81;;;12.23;64.85
61394;BME280;48555;50.952;-0.120;2024-01-30T12:27:26;102380.88;;;12.20;64.72
61394;BME280;48555;50.952;-0.120;2024-01-30T12:29:58;102393.25;;;12.18;64.73
61394;BME280;48555;50.952;-0.120;2024-01-30T12:32:23;102382.03;;;12.14;64.94
61394;BME280;48555;50.952;-0.120;2024-01-30T12:34:49;102379.50;;;12.13;64.64